createdAt,value
2017-02-09T00:00:37.872Z,0
2017-02-09T00:02:50.460Z,0
2017-02-09T00:05:07.425Z,0
2017-02-09T00:07:19.809Z,0
2017-02-09T00:09:32.235Z,0
2017-02-09T00:11:44.503Z,0
2017-02-09T00:13:56.798Z,0
2017-02-09T00:16:09.068Z,0
2017-02-09T00:18:21.391Z,0
2017-02-09T00:20:33.739Z,0
2017-02-09T00:22:45.995Z,0
2017-02-09T00:24:58.370Z,0
2017-02-09T00:27:10.864Z,0
2017-02-09T00:29:22.988Z,0
2017-02-09T00:31:35.325Z,0
2017-02-09T00:33:47.545Z,0
2017-02-09T00:35:59.849Z,0
2017-02-09T00:38:12.188Z,0
2017-02-09T00:40:24.386Z,0
2017-02-09T00:42:31.631Z,0
2017-02-09T00:44:43.936Z,0
2017-02-09T00:46:56.274Z,0
2017-02-09T00:49:08.567Z,0
2017-02-09T00:51:20.758Z,0
2017-02-09T00:53:32.936Z,0
2017-02-09T00:55:45.164Z,0
2017-02-09T00:57:57.395Z,0
2017-02-09T01:00:09.936Z,0
2017-02-09T01:02:22.289Z,0
2017-02-09T01:04:34.561Z,0
2017-02-09T01:06:46.799Z,0
2017-02-09T01:08:59.073Z,0
2017-02-09T01:11:11.347Z,0
2017-02-09T01:13:23.527Z,0
2017-02-09T01:15:35.831Z,0
2017-02-09T01:17:48.039Z,0
2017-02-09T01:20:00.239Z,0
2017-02-09T01:22:07.541Z,0
2017-02-09T01:24:19.877Z,0
2017-02-09T01:26:32.057Z,0
2017-02-09T01:28:44.272Z,0
2017-02-09T01:30:56.533Z,0
2017-02-09T01:33:09.043Z,0
2017-02-09T01:35:21.647Z,0
2017-02-09T01:37:34.116Z,0
2017-02-09T01:39:46.458Z,0
2017-02-09T01:41:58.844Z,0
2017-02-09T01:44:11.264Z,0
2017-02-09T01:46:23.473Z,0
2017-02-09T01:48:35.848Z,0
2017-02-09T01:50:43.195Z,0
2017-02-09T01:52:50.525Z,0
2017-02-09T01:55:02.927Z,0
2017-02-09T01:57:15.153Z,0
2017-02-09T01:59:27.521Z,0
2017-02-09T02:01:39.699Z,0
2017-02-09T02:03:51.889Z,0
2017-02-09T02:06:04.078Z,0
2017-02-09T02:08:16.891Z,0
2017-02-09T02:10:29.499Z,0
2017-02-09T02:12:41.684Z,0
2017-02-09T02:14:54.072Z,0
2017-02-09T02:17:06.449Z,0
2017-02-09T02:19:18.810Z,0
2017-02-09T02:21:31.271Z,0
2017-02-09T02:23:43.431Z,0
2017-02-09T02:25:55.636Z,0
2017-02-09T02:28:07.918Z,0
2017-02-09T02:30:20.086Z,0
2017-02-09T02:32:32.462Z,0
2017-02-09T02:34:44.745Z,0
2017-02-09T02:36:57.117Z,0
2017-02-09T02:39:09.349Z,0
2017-02-09T02:41:21.573Z,0
2017-02-09T02:43:34.440Z,0
2017-02-09T02:45:46.898Z,0
2017-02-09T02:47:59.177Z,0
2017-02-09T02:50:11.403Z,0
2017-02-09T02:52:23.756Z,0
2017-02-09T02:54:36.233Z,0
2017-02-09T02:56:48.614Z,0
2017-02-09T02:59:00.876Z,0
2017-02-09T03:01:13.425Z,0
2017-02-09T03:03:25.698Z,0
2017-02-09T03:05:38.099Z,0
2017-02-09T03:07:50.261Z,0
2017-02-09T03:10:02.422Z,0
2017-02-09T03:12:14.685Z,0
2017-02-09T03:14:26.854Z,0
2017-02-09T03:16:39.098Z,0
2017-02-09T03:18:51.692Z,0
2017-02-09T03:20:59.155Z,0
2017-02-09T03:23:06.529Z,0
2017-02-09T03:25:18.833Z,0
2017-02-09T03:27:31.264Z,0
2017-02-09T03:29:43.519Z,0
2017-02-09T03:31:55.729Z,0
2017-02-09T03:34:03.161Z,0
2017-02-09T03:36:15.395Z,0
2017-02-09T03:38:28.617Z,0
2017-02-09T03:40:40.788Z,0
2017-02-09T03:42:53.027Z,0
2017-02-09T03:45:05.434Z,0
2017-02-09T03:47:17.717Z,0
2017-02-09T03:49:30.180Z,0
2017-02-09T03:51:53.566Z,0
2017-02-09T03:54:06.587Z,0
2017-02-09T03:56:19.035Z,0
2017-02-09T03:58:31.511Z,0
2017-02-09T04:00:43.785Z,0
2017-02-09T04:02:55.936Z,0
2017-02-09T04:05:08.163Z,0
2017-02-09T04:07:20.483Z,0
2017-02-09T04:09:32.721Z,0
2017-02-09T04:11:45.113Z,0
2017-02-09T04:13:57.450Z,0
2017-02-09T04:16:09.904Z,0
2017-02-09T04:18:22.153Z,0
2017-02-09T04:20:34.500Z,0
2017-02-09T04:22:46.877Z,0
2017-02-09T04:24:59.011Z,0
2017-02-09T04:27:11.411Z,0
2017-02-09T04:29:24.037Z,0
2017-02-09T04:31:36.200Z,0
2017-02-09T04:33:48.614Z,0
2017-02-09T04:36:00.901Z,0
2017-02-09T04:38:13.175Z,0
2017-02-09T04:40:20.594Z,0
2017-02-09T04:42:32.753Z,0
2017-02-09T04:44:45.054Z,0
2017-02-09T04:46:57.234Z,0
2017-02-09T04:49:09.601Z,0
2017-02-09T04:51:21.873Z,0
2017-02-09T04:53:34.245Z,0
2017-02-09T04:55:46.595Z,0
2017-02-09T04:57:58.848Z,0
2017-02-09T05:00:11.128Z,0
2017-02-09T05:02:18.484Z,0
2017-02-09T05:04:31.289Z,0
2017-02-09T05:06:43.889Z,0
2017-02-09T05:08:56.302Z,0
2017-02-09T05:11:08.661Z,0
2017-02-09T05:13:20.905Z,0
2017-02-09T05:15:33.179Z,0
2017-02-09T05:17:45.606Z,0
2017-02-09T05:19:57.768Z,0
2017-02-09T05:22:05.115Z,0
2017-02-09T05:24:17.507Z,0
2017-02-09T05:26:29.969Z,0
2017-02-09T05:28:42.338Z,0
2017-02-09T05:30:54.700Z,0
2017-02-09T05:33:07.106Z,0
2017-02-09T05:35:19.623Z,0
2017-02-09T05:37:32.016Z,0
2017-02-09T05:39:44.777Z,0
2017-02-09T05:41:57.891Z,0
2017-02-09T05:44:10.168Z,0
2017-02-09T05:46:22.541Z,0
2017-02-09T05:48:34.715Z,0
2017-02-09T05:50:47.147Z,0
2017-02-09T05:52:59.383Z,0
2017-02-09T05:55:11.633Z,0
2017-02-09T05:57:23.980Z,0
2017-02-09T05:59:36.179Z,0
2017-02-09T06:01:48.642Z,0
2017-02-09T06:04:01.147Z,4
2017-02-09T06:06:13.449Z,0
2017-02-09T06:08:25.682Z,4
2017-02-09T06:10:38.104Z,4
2017-02-09T06:12:45.589Z,8
2017-02-09T06:14:57.756Z,8
2017-02-09T06:17:05.017Z,12
2017-02-09T06:19:17.640Z,20
2017-02-09T06:21:29.829Z,28
2017-02-09T06:23:42.054Z,36
2017-02-09T06:25:54.404Z,44
2017-02-09T06:28:06.801Z,48
2017-02-09T06:30:19.890Z,64
2017-02-09T06:32:32.179Z,80
2017-02-09T06:34:44.536Z,92
2017-02-09T06:36:56.934Z,104
2017-02-09T06:39:09.177Z,128
2017-02-09T06:41:21.617Z,148
2017-02-09T06:43:28.955Z,156
2017-02-09T06:45:41.298Z,172
2017-02-09T06:47:53.557Z,208
2017-02-09T06:49:56.057Z,256
2017-02-09T06:52:08.437Z,276
2017-02-09T06:54:21.037Z,312
2017-02-09T06:56:33.407Z,368
2017-02-09T06:58:45.791Z,408
2017-02-09T07:00:53.300Z,480
2017-02-09T07:03:05.796Z,472
2017-02-09T07:05:17.981Z,500
2017-02-09T07:07:30.340Z,684
2017-02-09T07:09:42.621Z,708
2017-02-09T07:11:55.100Z,824
2017-02-09T07:14:07.463Z,852
2017-02-09T07:16:19.849Z,832
2017-02-09T07:18:32.316Z,876
2017-02-09T07:20:44.749Z,904
2017-02-09T07:22:57.128Z,944
2017-02-09T07:25:09.504Z,1076
2017-02-09T07:27:22.085Z,1156
2017-02-09T07:29:34.519Z,1260
2017-02-09T07:31:46.855Z,1288
2017-02-09T07:33:59.100Z,1448
2017-02-09T07:36:12.277Z,1772
2017-02-09T07:38:24.642Z,1840
2017-02-09T07:40:36.910Z,2020
2017-02-09T07:42:49.367Z,2140
2017-02-09T07:45:01.632Z,2084
2017-02-09T07:47:14.078Z,2224
2017-02-09T07:49:26.598Z,2444
2017-02-09T07:51:38.960Z,2408
2017-02-09T07:53:46.277Z,2612
2017-02-09T07:55:58.627Z,2516
2017-02-09T07:58:11.111Z,2152
2017-02-09T08:00:23.572Z,2448
2017-02-09T08:02:35.946Z,2108
2017-02-09T08:04:48.522Z,2224
2017-02-09T08:07:00.739Z,2188
2017-02-09T08:09:12.950Z,2360
2017-02-09T08:11:20.196Z,2368
2017-02-09T08:13:32.823Z,2320
2017-02-09T08:15:45.034Z,2592
2017-02-09T08:17:52.618Z,2332
2017-02-09T08:20:05.033Z,2760
2017-02-09T08:22:17.372Z,3036
2017-02-09T08:24:29.741Z,3156
2017-02-09T08:26:42.433Z,3412
2017-02-09T08:28:54.777Z,3256
2017-02-09T08:31:07.242Z,3184
2017-02-09T08:33:14.554Z,3968
2017-02-09T08:35:26.881Z,4160
2017-02-09T08:37:39.140Z,4540
2017-02-09T08:39:46.506Z,5368
2017-02-09T08:41:58.891Z,6276
2017-02-09T08:44:11.376Z,5932
2017-02-09T08:46:24.701Z,6052
2017-02-09T08:48:37.127Z,6580
2017-02-09T08:50:49.584Z,6208
2017-02-09T08:53:02.036Z,6588
2017-02-09T08:55:14.463Z,6412
2017-02-09T08:57:27.751Z,5492
2017-02-09T08:59:40.229Z,5360
2017-02-09T09:01:52.665Z,5384
2017-02-09T09:04:05.020Z,5728
2017-02-09T09:06:17.408Z,6632
2017-02-09T09:08:29.783Z,7388
2017-02-09T09:10:42.080Z,7260
2017-02-09T09:12:54.570Z,7332
2017-02-09T09:15:02.028Z,8940
2017-02-09T09:17:14.565Z,9396
2017-02-09T09:19:27.151Z,7988
2017-02-09T09:21:34.337Z,7728
2017-02-09T09:23:46.784Z,7720
2017-02-09T09:25:59.017Z,8040
2017-02-09T09:28:06.319Z,8468
2017-02-09T09:30:18.602Z,7996
2017-02-09T09:32:30.910Z,8036
2017-02-09T09:34:43.255Z,8708
2017-02-09T09:36:50.518Z,9484
2017-02-09T09:39:03.011Z,9780
2017-02-09T09:41:10.485Z,9816
2017-02-09T09:43:22.750Z,10804
2017-02-09T09:45:34.973Z,10980
2017-02-09T09:47:47.138Z,11316
2017-02-09T09:49:59.426Z,11968
2017-02-09T09:52:11.866Z,11188
2017-02-09T09:54:24.189Z,13032
2017-02-09T09:56:31.606Z,14656
2017-02-09T09:58:44.129Z,14752
2017-02-09T10:00:56.322Z,14592
2017-02-09T10:03:08.531Z,15296
2017-02-09T10:05:20.965Z,13052
2017-02-09T10:07:33.095Z,11628
2017-02-09T10:09:40.368Z,10116
2017-02-09T10:11:47.624Z,12384
2017-02-09T10:13:59.825Z,12480
2017-02-09T10:16:12.066Z,13620
2017-02-09T10:18:24.340Z,16224
2017-02-09T10:20:31.821Z,18272
2017-02-09T10:22:44.214Z,21888
2017-02-09T10:24:56.551Z,15296
2017-02-09T10:27:08.943Z,14688
2017-02-09T10:29:21.434Z,15072
2017-02-09T10:31:33.854Z,15424
2017-02-09T10:33:46.075Z,17536
2017-02-09T10:35:58.401Z,15488
2017-02-09T10:38:10.652Z,20032
2017-02-09T10:40:22.868Z,17216
2017-02-09T10:42:30.131Z,17312
2017-02-09T10:44:42.350Z,12772
2017-02-09T10:46:54.533Z,16640
2017-02-09T10:49:06.830Z,17728
2017-02-09T10:51:18.996Z,15488
2017-02-09T10:53:31.366Z,20864
2017-02-09T10:55:43.632Z,14508
2017-02-09T10:57:55.917Z,20032
2017-02-09T11:00:08.095Z,16512
2017-02-09T11:02:20.481Z,14388
2017-02-09T11:04:27.847Z,11608
2017-02-09T11:06:40.000Z,11892
2017-02-09T11:08:47.304Z,12620
2017-02-09T11:10:59.659Z,14008
2017-02-09T11:13:11.836Z,14252
2017-02-09T11:15:24.005Z,16192
2017-02-09T11:17:38.762Z,11876
2017-02-09T11:19:59.574Z,12660
2017-02-09T11:22:22.503Z,14944
2017-02-09T11:24:36.753Z,14008
2017-02-09T11:26:48.914Z,13904
2017-02-09T11:29:01.143Z,12160
2017-02-09T11:31:13.686Z,15488
2017-02-09T11:33:25.803Z,15072
2017-02-09T11:35:38.079Z,14912
2017-02-09T11:37:50.241Z,14364
2017-02-09T11:40:02.694Z,18400
2017-02-09T11:42:15.315Z,15808
2017-02-09T11:44:27.667Z,13092
2017-02-09T11:46:39.968Z,12180
2017-02-09T11:48:52.325Z,12940
2017-02-09T11:51:04.656Z,16704
2017-02-09T11:53:16.911Z,16224
2017-02-09T11:55:29.173Z,20544
2017-02-09T11:57:41.661Z,25024
2017-02-09T11:59:54.053Z,21536
2017-02-09T12:02:01.550Z,16384
2017-02-09T12:04:08.928Z,20576
2017-02-09T12:06:21.175Z,18048
2017-02-09T12:08:33.739Z,15744
2017-02-09T12:10:46.470Z,19328
2017-02-09T12:12:59.216Z,20992
2017-02-09T12:15:11.531Z,26176
2017-02-09T12:17:23.920Z,20096
2017-02-09T12:19:36.535Z,26720
2017-02-09T12:21:43.727Z,18048
2017-02-09T12:23:56.059Z,15136
2017-02-09T12:26:08.402Z,13788
2017-02-09T12:28:15.599Z,13452
2017-02-09T12:30:30.405Z,12644
2017-02-09T12:32:43.570Z,12508
2017-02-09T12:34:57.736Z,13048
2017-02-09T12:37:11.801Z,11600
2017-02-09T12:39:25.486Z,11180
2017-02-09T12:41:38.511Z,12220
2017-02-09T12:43:49.004Z,11976
2017-02-09T12:46:02.395Z,10940
2017-02-09T12:48:14.775Z,12536
2017-02-09T12:50:27.070Z,13232
2017-02-09T12:52:39.459Z,13488
2017-02-09T12:54:52.139Z,13624
2017-02-09T12:57:04.495Z,9700
2017-02-09T12:59:17.142Z,8208
2017-02-09T13:01:29.492Z,9028
2017-02-09T13:03:41.894Z,8240
2017-02-09T13:05:54.143Z,8020
2017-02-09T13:08:06.699Z,8564
2017-02-09T13:10:19.065Z,8864
2017-02-09T13:12:31.388Z,9696
2017-02-09T13:14:38.872Z,9572
2017-02-09T13:16:51.231Z,9900
2017-02-09T13:19:03.622Z,9720
2017-02-09T13:21:15.994Z,9916
2017-02-09T13:23:28.298Z,8848
2017-02-09T13:25:40.759Z,7176
2017-02-09T13:27:53.190Z,7772
2017-02-09T13:30:05.798Z,8252
2017-02-09T13:32:18.142Z,7768
2017-02-09T13:34:30.431Z,7640
2017-02-09T13:36:42.750Z,7304
2017-02-09T13:38:55.180Z,6520
2017-02-09T13:41:02.721Z,6416
2017-02-09T13:43:15.082Z,5876
2017-02-09T13:45:27.425Z,5584
2017-02-09T13:47:39.887Z,5804
2017-02-09T13:49:52.198Z,5952
2017-02-09T13:52:04.558Z,6020
2017-02-09T13:54:17.012Z,6088
2017-02-09T13:56:29.347Z,6464
2017-02-09T13:58:41.648Z,6476
2017-02-09T14:00:53.998Z,6420
2017-02-09T14:03:01.378Z,6520
2017-02-09T14:05:13.802Z,6264
2017-02-09T14:07:26.051Z,6660
2017-02-09T14:09:38.232Z,5872
2017-02-09T14:11:50.583Z,5848
2017-02-09T14:13:57.994Z,5368
2017-02-09T14:16:10.207Z,5364
2017-02-09T14:18:22.392Z,5432
2017-02-09T14:20:34.675Z,5256
2017-02-09T14:22:46.867Z,4972
2017-02-09T14:24:59.006Z,4892
2017-02-09T14:27:11.303Z,4936
2017-02-09T14:29:23.490Z,4800
2017-02-09T14:31:35.734Z,4640
2017-02-09T14:33:48.096Z,4564
2017-02-09T14:36:00.385Z,3872
2017-02-09T14:38:12.688Z,3464
2017-02-09T14:40:19.874Z,3268
2017-02-09T14:42:32.210Z,2748
2017-02-09T14:44:44.546Z,2816
2017-02-09T14:46:56.825Z,2912
2017-02-09T14:49:09.194Z,3308
2017-02-09T14:51:16.692Z,3076
2017-02-09T14:53:24.342Z,2844
2017-02-09T14:55:36.803Z,2752
2017-02-09T14:57:49.053Z,2316
2017-02-09T14:59:56.389Z,2032
2017-02-09T15:02:08.587Z,1888
2017-02-09T15:04:21.127Z,1876
2017-02-09T15:06:35.106Z,1888
2017-02-09T15:08:47.586Z,1768
2017-02-09T15:10:59.817Z,1636
2017-02-09T15:13:12.254Z,1740
2017-02-09T15:15:24.667Z,1728
2017-02-09T15:17:36.906Z,1744
2017-02-09T15:19:49.309Z,1720
2017-02-09T15:22:01.738Z,1580
2017-02-09T15:24:13.983Z,1372
2017-02-09T15:26:26.271Z,1328
2017-02-09T15:28:33.521Z,1124
2017-02-09T15:30:46.197Z,1076
2017-02-09T15:32:53.665Z,1048
2017-02-09T15:35:05.905Z,1012
2017-02-09T15:37:18.174Z,1020
2017-02-09T15:39:30.590Z,980
2017-02-09T15:41:42.941Z,912
2017-02-09T15:43:55.425Z,824
2017-02-09T15:46:02.754Z,792
2017-02-09T15:48:15.035Z,680
2017-02-09T15:50:27.306Z,624
2017-02-09T15:52:39.648Z,620
2017-02-09T15:54:51.883Z,548
2017-02-09T15:57:04.120Z,492
2017-02-09T15:59:16.454Z,408
2017-02-09T16:01:28.770Z,384
2017-02-09T16:03:41.229Z,324
2017-02-09T16:05:54.267Z,296
2017-02-09T16:08:06.571Z,264
2017-02-09T16:10:19.062Z,228
2017-02-09T16:12:31.525Z,200
2017-02-09T16:14:43.814Z,172
2017-02-09T16:16:51.186Z,152
2017-02-09T16:19:03.382Z,128
2017-02-09T16:21:15.641Z,108
2017-02-09T16:23:27.812Z,88
2017-02-09T16:25:40.117Z,72
2017-02-09T16:27:52.465Z,56
2017-02-09T16:30:04.740Z,44
2017-02-09T16:32:16.999Z,36
2017-02-09T16:34:29.300Z,28
2017-02-09T16:36:41.601Z,20
2017-02-09T16:38:54.695Z,16
2017-02-09T16:41:07.015Z,12
2017-02-09T16:43:19.431Z,8
2017-02-09T16:45:31.722Z,8
2017-02-09T16:47:44.004Z,4
2017-02-09T16:49:51.356Z,0
2017-02-09T16:52:03.648Z,4
2017-02-09T16:54:16.179Z,0
2017-02-09T16:56:28.617Z,0
2017-02-09T16:58:41.091Z,0
2017-02-09T17:00:53.730Z,0
2017-02-09T17:03:06.162Z,0
2017-02-09T17:05:18.502Z,0
2017-02-09T17:07:30.705Z,0
2017-02-09T17:09:42.909Z,0
2017-02-09T17:11:55.270Z,0
2017-02-09T17:14:07.597Z,0
2017-02-09T17:16:19.941Z,0
2017-02-09T17:18:27.234Z,0
2017-02-09T17:20:39.666Z,0
2017-02-09T17:22:52.105Z,0
2017-02-09T17:25:04.601Z,0
2017-02-09T17:27:17.030Z,0
2017-02-09T17:29:29.328Z,0
2017-02-09T17:31:42.005Z,0
2017-02-09T17:33:54.569Z,0
2017-02-09T17:36:06.787Z,0
2017-02-09T17:38:14.308Z,0
2017-02-09T17:40:26.839Z,0
2017-02-09T17:42:39.171Z,0
2017-02-09T17:44:51.498Z,0
2017-02-09T17:47:03.905Z,0
2017-02-09T17:49:16.285Z,0
2017-02-09T17:51:28.629Z,0
2017-02-09T17:53:35.919Z,0
2017-02-09T17:55:48.319Z,0
2017-02-09T17:58:00.635Z,0
2017-02-09T18:00:13.023Z,0
2017-02-09T18:02:25.267Z,0
2017-02-09T18:04:37.470Z,0
2017-02-09T18:06:49.944Z,0
2017-02-09T18:09:02.143Z,0
2017-02-09T18:11:15.426Z,0
2017-02-09T18:13:27.806Z,0
2017-02-09T18:15:40.193Z,0
2017-02-09T18:17:52.606Z,0
2017-02-09T18:20:04.824Z,0
2017-02-09T18:22:12.211Z,0
2017-02-09T18:24:24.528Z,0
2017-02-09T18:26:36.856Z,0
2017-02-09T18:28:44.549Z,0
2017-02-09T18:30:52.167Z,0
2017-02-09T18:33:04.573Z,0
2017-02-09T18:35:16.978Z,0
2017-02-09T18:37:29.432Z,0
2017-02-09T18:39:41.833Z,0
2017-02-09T18:41:54.314Z,0
2017-02-09T18:44:06.771Z,0
2017-02-09T18:46:19.155Z,0
2017-02-09T18:48:31.552Z,0
2017-02-09T18:50:43.940Z,0
2017-02-09T18:52:56.372Z,0
2017-02-09T18:55:08.848Z,0
2017-02-09T18:57:21.062Z,0
2017-02-09T18:59:33.326Z,0
2017-02-09T19:01:45.637Z,0
2017-02-09T19:03:58.026Z,0
2017-02-09T19:06:10.405Z,0
2017-02-09T19:08:22.597Z,0
2017-02-09T19:10:35.053Z,0
2017-02-09T19:12:47.721Z,0
2017-02-09T19:14:59.976Z,0
2017-02-09T19:17:12.250Z,0
2017-02-09T19:19:19.476Z,0
2017-02-09T19:21:31.645Z,0
2017-02-09T19:23:43.819Z,0
2017-02-09T19:25:56.165Z,0
2017-02-09T19:28:08.540Z,0
2017-02-09T19:30:20.800Z,0
2017-02-09T19:32:33.200Z,0
2017-02-09T19:34:45.709Z,0
2017-02-09T19:36:58.075Z,0
2017-02-09T19:39:10.342Z,0
2017-02-09T19:41:22.650Z,0
2017-02-09T19:43:34.986Z,0
2017-02-09T19:45:47.481Z,0
2017-02-09T19:47:55.082Z,0
2017-02-09T19:50:07.745Z,0
2017-02-09T19:52:20.334Z,0
2017-02-09T19:54:32.625Z,0
2017-02-09T19:56:45.235Z,0
2017-02-09T19:58:57.706Z,0
2017-02-09T20:01:10.221Z,0
2017-02-09T20:03:22.574Z,0
2017-02-09T20:05:34.900Z,0
2017-02-09T20:07:42.517Z,0
2017-02-09T20:09:54.737Z,0
2017-02-09T20:12:07.440Z,0
2017-02-09T20:14:20.301Z,0
2017-02-09T20:16:49.555Z,0
2017-02-09T20:19:02.427Z,0
2017-02-09T20:21:15.068Z,0
2017-02-09T20:23:27.590Z,0
2017-02-09T20:25:40.288Z,0
2017-02-09T20:27:52.883Z,0
2017-02-09T20:30:05.295Z,0
2017-02-09T20:32:17.898Z,0
2017-02-09T20:34:30.436Z,0
2017-02-09T20:36:42.854Z,0
2017-02-09T20:38:55.253Z,0
2017-02-09T20:41:07.744Z,0
2017-02-09T20:43:20.032Z,0
2017-02-09T20:45:32.315Z,0
2017-02-09T20:47:44.723Z,0
2017-02-09T20:49:57.078Z,0
2017-02-09T20:52:09.582Z,0
2017-02-09T20:54:22.215Z,0
2017-02-09T20:56:34.905Z,0
2017-02-09T20:58:47.640Z,0
2017-02-09T21:01:00.236Z,0
2017-02-09T21:03:12.717Z,0
2017-02-09T21:05:24.970Z,0
2017-02-09T21:07:37.579Z,0
2017-02-09T21:09:49.810Z,0
2017-02-09T21:12:02.350Z,0
2017-02-09T21:14:14.695Z,0
2017-02-09T21:16:27.049Z,0
2017-02-09T21:18:39.314Z,0
2017-02-09T21:20:51.710Z,0
2017-02-09T21:23:04.211Z,0
2017-02-09T21:25:16.647Z,0
2017-02-09T21:27:29.054Z,0
2017-02-09T21:29:41.722Z,0
2017-02-09T21:31:49.043Z,0
2017-02-09T21:34:01.431Z,0
2017-02-09T21:36:13.850Z,0
2017-02-09T21:38:21.399Z,0
2017-02-09T21:40:28.688Z,0
2017-02-09T21:42:41.046Z,0
2017-02-09T21:44:53.294Z,0
2017-02-09T21:47:05.772Z,0
2017-02-09T21:49:18.085Z,0
2017-02-09T21:51:30.934Z,0
2017-02-09T21:53:43.405Z,0
2017-02-09T21:55:57.765Z,0
2017-02-09T21:58:09.998Z,0
2017-02-09T22:00:22.313Z,0
2017-02-09T22:02:34.747Z,0
2017-02-09T22:04:42.102Z,0
2017-02-09T22:06:49.539Z,0
2017-02-09T22:09:01.776Z,0
2017-02-09T22:11:15.016Z,0
2017-02-09T22:13:27.352Z,0
2017-02-09T22:15:39.771Z,0
2017-02-09T22:17:52.123Z,0
2017-02-09T22:20:04.411Z,0
2017-02-09T22:22:16.605Z,0
2017-02-09T22:24:28.882Z,0
2017-02-09T22:26:41.202Z,0
2017-02-09T22:28:53.541Z,0
2017-02-09T22:31:05.762Z,0
2017-02-09T22:33:18.249Z,0
2017-02-09T22:35:30.659Z,0
2017-02-09T22:37:42.930Z,0
2017-02-09T22:39:55.372Z,0
2017-02-09T22:42:07.901Z,0
2017-02-09T22:44:20.257Z,0
2017-02-09T22:46:32.679Z,0
2017-02-09T22:48:45.073Z,0
2017-02-09T22:50:52.335Z,0
2017-02-09T22:53:04.734Z,0
2017-02-09T22:55:17.025Z,0
2017-02-09T22:57:29.265Z,0
2017-02-09T22:59:41.683Z,0
2017-02-09T23:01:54.100Z,0
2017-02-09T23:04:06.680Z,0
2017-02-09T23:06:19.082Z,0
2017-02-09T23:08:31.528Z,0
2017-02-09T23:10:43.905Z,0
2017-02-09T23:12:56.306Z,0
2017-02-09T23:15:08.989Z,0
2017-02-09T23:17:21.325Z,0
2017-02-09T23:19:33.514Z,0
2017-02-09T23:21:45.916Z,0
2017-02-09T23:23:58.304Z,0
2017-02-09T23:26:10.501Z,0
2017-02-09T23:28:22.756Z,0
2017-02-09T23:30:35.163Z,0
2017-02-09T23:32:47.571Z,0
2017-02-09T23:34:54.882Z,0
2017-02-09T23:37:02.102Z,0
2017-02-09T23:39:14.292Z,0
2017-02-09T23:41:26.622Z,0
2017-02-09T23:43:38.880Z,0
2017-02-09T23:45:51.228Z,0
2017-02-09T23:48:03.465Z,0
2017-02-09T23:50:16.032Z,0
2017-02-09T23:52:28.477Z,0
2017-02-09T23:54:40.657Z,0
2017-02-09T23:56:53.022Z,0
2017-02-09T23:59:05.164Z,0
